createdAt,value
2018-04-17T00:02:16.468Z,102304.24
2018-04-17T00:05:19.885Z,102306.73
2018-04-17T00:08:23.088Z,102304.99
2018-04-17T00:11:26.277Z,102307.83
2018-04-17T00:14:29.648Z,102311.87
2018-04-17T00:17:32.980Z,102317.41
2018-04-17T00:20:36.241Z,102313.51
2018-04-17T00:23:39.581Z,102316.23
2018-04-17T00:26:42.866Z,102319.28
2018-04-17T00:29:46.126Z,102321.77
2018-04-17T00:32:49.376Z,102324.78
2018-04-17T00:35:52.728Z,102330.35
2018-04-17T00:38:56.019Z,102332.27
2018-04-17T00:41:59.247Z,102333.77
2018-04-17T00:45:02.629Z,102338.71
2018-04-17T00:48:05.844Z,102345.48
2018-04-17T00:51:09.040Z,102345.29
2018-04-17T00:54:12.369Z,102346.11
2018-04-17T00:57:16.759Z,102346.41
2018-04-17T01:00:20.036Z,102347.19
2018-04-17T01:03:23.354Z,102352.11
2018-04-17T01:06:26.745Z,102356.92
2018-04-17T01:09:30.032Z,102358.53
2018-04-17T01:12:33.432Z,102361.00
2018-04-17T01:15:36.725Z,102359.43
2018-04-17T01:18:40.017Z,102368.05
2018-04-17T01:21:43.334Z,102366.47
2018-04-17T01:24:46.716Z,102372.05
2018-04-17T01:27:49.940Z,102376.10
2018-04-17T01:30:53.123Z,102377.37
2018-04-17T01:33:56.497Z,102380.29
2018-04-17T01:36:59.819Z,102384.11
2018-04-17T01:40:03.008Z,102388.85
2018-04-17T01:43:06.391Z,102393.57
2018-04-17T01:46:09.627Z,102397.83
2018-04-17T01:49:12.884Z,102393.75
2018-04-17T01:52:16.291Z,102398.12
2018-04-17T01:55:19.624Z,102399.62
2018-04-17T01:58:22.977Z,102394.66
2018-04-17T02:01:26.312Z,102396.53
2018-04-17T02:04:29.624Z,102392.90
2018-04-17T02:07:32.911Z,102391.84
2018-04-17T02:10:36.108Z,102399.49
2018-04-17T02:13:39.493Z,102400.95
2018-04-17T02:16:42.763Z,102404.34
2018-04-17T02:19:46.014Z,102406.10
2018-04-17T02:22:49.373Z,102410.35
2018-04-17T02:25:52.666Z,102414.16
2018-04-17T02:28:55.977Z,102413.64
2018-04-17T02:31:59.369Z,102415.63
2018-04-17T02:35:02.660Z,102417.52
2018-04-17T02:38:05.964Z,102418.85
2018-04-17T02:41:09.356Z,102421.97
2018-04-17T02:44:12.589Z,102424.75
2018-04-17T02:47:15.956Z,102427.92
2018-04-17T02:50:19.178Z,102430.64
2018-04-17T02:53:22.565Z,102433.26
2018-04-17T02:56:25.785Z,102433.83
2018-04-17T02:59:29.036Z,102440.16
2018-04-17T03:02:32.349Z,102445.67
2018-04-17T03:05:35.563Z,102448.02
2018-04-17T03:08:38.760Z,102454.20
2018-04-17T03:11:42.125Z,102451.07
2018-04-17T03:14:45.352Z,102453.31
2018-04-17T03:17:48.616Z,102455.03
2018-04-17T03:20:52.012Z,102454.12
2018-04-17T03:23:55.312Z,102457.62
2018-04-17T03:26:58.630Z,102464.04
2018-04-17T03:30:01.999Z,102468.29
2018-04-17T03:33:05.327Z,102474.15
2018-04-17T03:36:08.635Z,102473.64
2018-04-17T03:39:11.831Z,102471.43
2018-04-17T03:42:15.217Z,102471.64
2018-04-17T03:45:18.615Z,102485.20
2018-04-17T03:48:22.091Z,102485.78
2018-04-17T03:51:25.444Z,102486.45
2018-04-17T03:54:28.821Z,102494.57
2018-04-17T03:57:32.081Z,102494.93
2018-04-17T04:00:35.373Z,102505.85
2018-04-17T04:03:38.670Z,102501.47
2018-04-17T04:06:41.960Z,102510.66
2018-04-17T04:09:45.248Z,102516.62
2018-04-17T04:12:48.616Z,102519.50
2018-04-17T04:15:51.970Z,102522.19
2018-04-17T04:20:04.393Z,102524.98
2018-04-17T04:25:18.575Z,102529.70
2018-04-17T04:28:22.021Z,102533.54
2018-04-17T04:31:26.316Z,102541.49
2018-04-17T04:34:29.556Z,102545.94
2018-04-17T04:37:32.799Z,102554.28
2018-04-17T04:40:36.024Z,102558.27
2018-04-17T04:43:39.400Z,102554.64
2018-04-17T04:46:42.665Z,102561.90
2018-04-17T04:49:45.986Z,102566.08
2018-04-17T04:52:49.251Z,102567.14
2018-04-17T04:55:52.957Z,102571.76
2018-04-17T04:58:56.289Z,102577.18
2018-04-17T05:01:59.541Z,102575.66
2018-04-17T05:05:02.880Z,102575.12
2018-04-17T05:08:06.290Z,102577.69
2018-04-17T05:11:09.605Z,102579.25
2018-04-17T05:14:13.026Z,102581.34
2018-04-17T05:17:16.273Z,102589.15
2018-04-17T05:20:19.616Z,102593.56
2018-04-17T05:23:22.876Z,102597.11
2018-04-17T05:26:27.154Z,102600.66
2018-04-17T05:29:30.340Z,102603.23
2018-04-17T05:32:33.580Z,102607.27
2018-04-17T05:35:36.901Z,102608.06
2018-04-17T05:38:40.181Z,102615.90
2018-04-17T05:41:43.478Z,102622.75
2018-04-17T05:44:46.742Z,102624.99
2018-04-17T05:47:50.046Z,102626.89
2018-04-17T05:50:54.080Z,102634.77
2018-04-17T05:53:57.330Z,102641.85
2018-04-17T05:57:00.547Z,102645.05
2018-04-17T06:00:03.792Z,102646.71
2018-04-17T06:03:07.079Z,102649.16
2018-04-17T06:06:10.433Z,102652.98
2018-04-17T06:09:13.647Z,102652.81
2018-04-17T06:12:16.912Z,102658.04
2018-04-17T06:15:20.073Z,102657.43
2018-04-17T06:18:23.369Z,102663.93
2018-04-17T06:21:26.606Z,102676.26
2018-04-17T06:24:29.874Z,102671.07
2018-04-17T06:27:33.146Z,102672.79
2018-04-17T06:30:36.386Z,102676.03
2018-04-17T06:33:39.641Z,102674.94
2018-04-17T06:36:43.006Z,102679.26
2018-04-17T06:39:46.241Z,102680.19
2018-04-17T06:42:49.530Z,102683.74
2018-04-17T06:45:52.876Z,102691.05
2018-04-17T06:48:56.224Z,102686.99
2018-04-17T06:51:59.561Z,102689.88
2018-04-17T06:55:02.937Z,102688.49
2018-04-17T06:58:06.111Z,102693.25
2018-04-17T07:01:09.395Z,102694.15
2018-04-17T07:04:12.706Z,102698.20
2018-04-17T07:07:15.988Z,102699.72
2018-04-17T07:10:19.250Z,102708.01
2018-04-17T07:13:22.575Z,102712.68
2018-04-17T07:16:25.801Z,102717.89
2018-04-17T07:19:29.030Z,102722.97
2018-04-17T07:22:32.188Z,102726.20
2018-04-17T07:25:35.535Z,102727.48
2018-04-17T07:28:38.772Z,102733.16
2018-04-17T07:31:42.062Z,102729.78
2018-04-17T07:34:45.382Z,102737.48
2018-04-17T07:37:48.587Z,102730.58
2018-04-17T07:40:51.774Z,102732.09
2018-04-17T07:43:55.080Z,102739.28
2018-04-17T07:47:07.221Z,102745.23
2018-04-17T07:50:10.492Z,102749.46
2018-04-17T07:53:13.777Z,102750.37
2018-04-17T07:56:17.047Z,102757.70
2018-04-17T07:59:20.264Z,102751.05
2018-04-17T08:02:23.476Z,102757.20
2018-04-17T08:05:27.025Z,102754.45
2018-04-17T08:08:30.248Z,102753.37
2018-04-17T08:11:33.456Z,102756.80
2018-04-17T08:14:36.767Z,102750.98
2018-04-17T08:17:40.114Z,102756.87
2018-04-17T08:20:43.290Z,102757.75
2018-04-17T08:23:46.516Z,102749.57
2018-04-17T08:26:49.720Z,102749.10
2018-04-17T08:29:55.169Z,102749.01
2018-04-17T08:32:59.034Z,102747.60
2018-04-17T08:36:02.262Z,102744.15
2018-04-17T08:39:06.071Z,102742.82
2018-04-17T08:42:09.411Z,102743.82
2018-04-17T08:45:12.682Z,102750.46
2018-04-17T08:48:15.968Z,102749.42
2018-04-17T08:51:19.204Z,102746.29
2018-04-17T08:54:22.523Z,102742.10
2018-04-17T08:57:25.851Z,102747.40
2018-04-17T09:00:29.012Z,102751.42
2018-04-17T09:03:32.252Z,102752.90
2018-04-17T09:06:35.476Z,102747.27
2018-04-17T09:09:38.749Z,102744.50
2018-04-17T09:12:42.009Z,102751.11
2018-04-17T09:15:45.248Z,102745.67
2018-04-17T09:18:48.463Z,102744.79
2018-04-17T09:21:52.778Z,102744.27
2018-04-17T09:24:56.048Z,102748.40
2018-04-17T09:27:59.253Z,102752.99
2018-04-17T09:31:02.468Z,102758.31
2018-04-17T09:34:05.689Z,102757.32
2018-04-17T09:37:08.952Z,102759.24
2018-04-17T09:40:12.125Z,102763.75
2018-04-17T09:43:15.330Z,102761.80
2018-04-17T09:46:18.587Z,102770.97
2018-04-17T09:49:21.821Z,102770.18
2018-04-17T09:52:25.186Z,102766.81
2018-04-17T09:55:28.953Z,102768.58
2018-04-17T09:58:32.421Z,102769.85
2018-04-17T10:01:35.623Z,102772.44
2018-04-17T10:04:38.932Z,102766.32
2018-04-17T10:07:42.244Z,102765.22
2018-04-17T10:10:45.523Z,102764.09
2018-04-17T10:13:48.843Z,102756.74
2018-04-17T10:16:52.225Z,102755.93
2018-04-17T10:19:55.551Z,102753.60
2018-04-17T10:22:58.816Z,102752.93
2018-04-17T10:26:02.105Z,102752.96
2018-04-17T10:29:05.440Z,102745.92
2018-04-17T10:32:08.717Z,102741.17
2018-04-17T10:35:11.960Z,102733.04
2018-04-17T10:38:15.111Z,102730.79
2018-04-17T10:41:18.409Z,102729.17
2018-04-17T10:44:22.202Z,102726.74
2018-04-17T10:47:25.460Z,102719.15
2018-04-17T10:50:28.644Z,102718.80
2018-04-17T10:53:31.906Z,102719.53
2018-04-17T10:56:35.372Z,102716.13
2018-04-17T10:59:38.673Z,102716.95
2018-04-17T11:02:41.988Z,102715.52
2018-04-17T11:05:45.258Z,102720.85
2018-04-17T11:08:48.480Z,102713.32
2018-04-17T11:11:51.839Z,102718.80
2018-04-17T11:14:55.180Z,102713.21
2018-04-17T11:17:58.408Z,102711.03
2018-04-17T11:21:01.693Z,102712.09
2018-04-17T11:24:04.980Z,102703.53
2018-04-17T11:27:08.180Z,102712.01
2018-04-17T11:30:11.429Z,102712.67
2018-04-17T11:33:14.669Z,102705.40
2018-04-17T11:36:17.891Z,102712.21
2018-04-17T11:39:21.184Z,102709.86
2018-04-17T11:42:24.458Z,102707.90
2018-04-17T11:45:27.754Z,102707.14
2018-04-17T11:48:31.048Z,102706.81
2018-04-17T11:51:34.293Z,102704.52
2018-04-17T11:54:37.524Z,102702.56
2018-04-17T11:57:40.670Z,102695.14
2018-04-17T12:00:43.954Z,102696.73
2018-04-17T12:03:47.223Z,102695.89
2018-04-17T12:06:50.489Z,102697.44
2018-04-17T12:09:53.883Z,102694.28
2018-04-17T12:12:57.010Z,102694.08
2018-04-17T12:16:00.336Z,102696.31
2018-04-17T12:19:03.649Z,102696.98
2018-04-17T12:22:06.937Z,102686.49
2018-04-17T12:25:10.120Z,102692.33
2018-04-17T12:28:13.300Z,102693.41
2018-04-17T12:31:16.672Z,102688.53
2018-04-17T12:34:19.960Z,102686.69
2018-04-17T12:37:23.217Z,102684.23
2018-04-17T12:40:26.474Z,102685.46
2018-04-17T12:43:29.771Z,102686.31
2018-04-17T12:46:33.071Z,102682.85
2018-04-17T12:49:36.403Z,102678.62
2018-04-17T12:52:39.584Z,102674.49
2018-04-17T12:55:42.749Z,102678.94
2018-04-17T12:58:46.032Z,102676.53
2018-04-17T13:01:49.403Z,102672.74
2018-04-17T13:04:52.675Z,102678.04
2018-04-17T13:07:55.949Z,102682.26
2018-04-17T13:10:59.167Z,102678.66
2018-04-17T13:14:02.832Z,102682.65
2018-04-17T13:17:06.312Z,102680.60
2018-04-17T13:20:09.476Z,102677.88
2018-04-17T13:23:12.871Z,102677.63
2018-04-17T13:26:16.127Z,102680.46
2018-04-17T13:29:19.446Z,102679.87
2018-04-17T13:32:22.682Z,102671.00
2018-04-17T13:35:25.943Z,102672.85
2018-04-17T13:38:29.211Z,102672.95
2018-04-17T13:41:32.371Z,102661.40
2018-04-17T13:44:35.614Z,102667.20
2018-04-17T13:47:38.921Z,102666.42
2018-04-17T13:50:42.212Z,102665.21
2018-04-17T13:53:45.499Z,102659.67
2018-04-17T13:56:48.838Z,102649.36
2018-04-17T13:59:52.078Z,102652.79
2018-04-17T14:02:55.471Z,102647.34
2018-04-17T14:05:58.731Z,102653.35
2018-04-17T14:09:01.961Z,102653.21
2018-04-17T14:12:05.318Z,102653.74
2018-04-17T14:15:08.578Z,102657.47
2018-04-17T14:18:12.072Z,102655.79
2018-04-17T14:21:15.293Z,102652.25
2018-04-17T14:24:18.598Z,102647.09
2018-04-17T14:27:21.925Z,102643.67
2018-04-17T14:30:25.189Z,102644.87
2018-04-17T14:33:28.525Z,102649.57
2018-04-17T14:36:31.793Z,102644.37
2018-04-17T14:39:35.005Z,102647.98
2018-04-17T14:42:38.252Z,102644.72
2018-04-17T14:45:41.538Z,102645.93
2018-04-17T14:48:44.776Z,102640.02
2018-04-17T14:51:48.113Z,102638.76
2018-04-17T14:54:51.349Z,102639.30
2018-04-17T14:57:54.659Z,102640.05
2018-04-17T15:00:58.064Z,102645.91
2018-04-17T15:04:01.329Z,102638.58
2018-04-17T15:07:04.599Z,102640.05
2018-04-17T15:10:07.881Z,102636.77
2018-04-17T15:13:11.192Z,102635.95
2018-04-17T15:16:14.501Z,102633.67
2018-04-17T15:19:17.723Z,102635.81
2018-04-17T15:22:21.212Z,102630.75
2018-04-17T15:25:24.402Z,102630.91
2018-04-17T15:28:27.637Z,102627.16
2018-04-17T15:31:30.882Z,102631.80
2018-04-17T15:34:34.139Z,102629.32
2018-04-17T15:37:37.467Z,102638.77
2018-04-17T15:40:40.732Z,102632.22
2018-04-17T15:43:43.999Z,102632.14
2018-04-17T15:46:47.265Z,102629.61
2018-04-17T15:49:50.544Z,102634.90
2018-04-17T15:52:53.907Z,102638.34
2018-04-17T15:55:57.180Z,102638.08
2018-04-17T15:59:00.314Z,102638.32
2018-04-17T16:02:03.544Z,102645.88
2018-04-17T16:05:06.767Z,102638.17
2018-04-17T16:08:10.059Z,102644.23
2018-04-17T16:11:13.280Z,102646.10
2018-04-17T16:14:16.499Z,102643.00
2018-04-17T16:17:19.765Z,102638.77
2018-04-17T16:20:23.058Z,102639.59
2018-04-17T16:23:26.365Z,102643.34
2018-04-17T16:26:29.632Z,102644.30
2018-04-17T16:29:32.892Z,102643.79
2018-04-17T16:32:36.147Z,102642.53
2018-04-17T16:35:39.435Z,102645.99
2018-04-17T16:38:42.757Z,102647.52
2018-04-17T16:41:46.061Z,102652.13
2018-04-17T16:44:49.365Z,102651.84
2018-04-17T16:47:52.681Z,102661.26
2018-04-17T16:50:55.862Z,102662.77
2018-04-17T16:53:59.046Z,102666.09
2018-04-17T16:57:02.352Z,102665.76
2018-04-17T17:00:05.576Z,102671.73
2018-04-17T17:03:10.890Z,102674.60
2018-04-17T17:06:14.210Z,102678.62
2018-04-17T17:09:17.654Z,102675.51
2018-04-17T17:12:21.051Z,102679.16
2018-04-17T17:15:24.374Z,102683.83
2018-04-17T17:18:27.733Z,102693.32
2018-04-17T17:21:30.984Z,102696.49
2018-04-17T17:24:34.276Z,102697.80
2018-04-17T17:27:37.672Z,102699.14
2018-04-17T17:30:40.955Z,102701.03
2018-04-17T17:33:44.206Z,102712.04
2018-04-17T17:36:47.471Z,102717.44
2018-04-17T17:39:50.656Z,102720.32
2018-04-17T17:42:54.005Z,102724.82
2018-04-17T17:45:57.208Z,102725.85
2018-04-17T17:49:00.466Z,102729.51
2018-04-17T17:52:03.796Z,102737.42
2018-04-17T17:55:06.973Z,102736.40
2018-04-17T17:58:10.236Z,102742.63
2018-04-17T18:01:13.589Z,102753.97
2018-04-17T18:04:16.778Z,102759.44
2018-04-17T18:07:20.036Z,102763.94
2018-04-17T18:10:23.840Z,102767.93
2018-04-17T18:13:27.119Z,102770.33
2018-04-17T18:16:30.379Z,102778.36
2018-04-17T18:19:33.721Z,102782.04
2018-04-17T18:22:37.082Z,102787.03
2018-04-17T18:25:40.355Z,102792.23
2018-04-17T18:28:43.741Z,102791.99
2018-04-17T18:31:47.016Z,102793.59
2018-04-17T18:34:50.435Z,102798.53
2018-04-17T18:37:53.828Z,102804.53
2018-04-17T18:40:57.124Z,102809.63
2018-04-17T18:44:00.533Z,102817.74
2018-04-17T18:47:03.913Z,102822.50
2018-04-17T18:50:07.230Z,102828.84
2018-04-17T18:53:10.608Z,102832.52
2018-04-17T18:56:13.889Z,102839.36
2018-04-17T18:59:17.199Z,102840.94
2018-04-17T19:02:20.458Z,102847.11
2018-04-17T19:05:23.908Z,102852.29
2018-04-17T19:08:27.220Z,102856.73
2018-04-17T19:11:30.549Z,102862.26
2018-04-17T19:14:33.917Z,102865.65
2018-04-17T19:17:37.404Z,102867.73
2018-04-17T19:20:40.732Z,102875.40
2018-04-17T19:23:44.134Z,102875.65
2018-04-17T19:26:47.512Z,102881.25
2018-04-17T19:29:50.776Z,102882.47
2018-04-17T19:32:54.424Z,102883.05
2018-04-17T19:35:57.880Z,102886.00
2018-04-17T19:39:01.173Z,102888.46
2018-04-17T19:42:04.433Z,102884.85
2018-04-17T19:45:07.784Z,102900.18
2018-04-17T19:48:11.207Z,102903.72
2018-04-17T19:51:14.608Z,102912.05
2018-04-17T19:54:18.009Z,102908.84
2018-04-17T19:57:21.461Z,102903.53
2018-04-17T20:00:24.826Z,102904.83
2018-04-17T20:03:28.311Z,102908.02
2018-04-17T20:06:31.616Z,102912.54
2018-04-17T20:09:34.885Z,102914.35
2018-04-17T20:12:38.255Z,102915.42
2018-04-17T20:15:41.608Z,102912.88
2018-04-17T20:18:44.890Z,102914.39
2018-04-17T20:21:48.346Z,102920.50
2018-04-17T20:24:51.723Z,102918.63
2018-04-17T20:27:54.945Z,102922.90
2018-04-17T20:30:58.278Z,102924.22
2018-04-17T20:34:01.587Z,102924.14
2018-04-17T20:37:04.909Z,102925.11
2018-04-17T20:40:08.125Z,102932.55
2018-04-17T20:43:11.467Z,102931.75
2018-04-17T20:46:14.705Z,102938.21
2018-04-17T20:49:18.062Z,102938.43
2018-04-17T20:52:21.482Z,102941.44
2018-04-17T20:55:24.782Z,102938.34
2018-04-17T20:58:28.162Z,102944.47
2018-04-17T21:01:31.547Z,102944.57
2018-04-17T21:04:34.872Z,102944.61
2018-04-17T21:07:38.362Z,102946.80
2018-04-17T21:10:41.817Z,102949.72
2018-04-17T21:13:45.169Z,102949.89
2018-04-17T21:16:48.477Z,102949.26
2018-04-17T21:19:52.922Z,102954.06
2018-04-17T21:22:56.339Z,102957.43
2018-04-17T21:25:59.695Z,102960.91
2018-04-17T21:29:03.093Z,102958.64
2018-04-17T21:32:06.482Z,102963.07
2018-04-17T21:35:09.796Z,102962.58
2018-04-17T21:38:13.302Z,102968.07
2018-04-17T21:41:16.685Z,102979.97
2018-04-17T21:44:20.034Z,102984.80
2018-04-17T21:47:23.493Z,102988.95
2018-04-17T21:50:26.873Z,102986.42
2018-04-17T21:53:30.120Z,102989.62
2018-04-17T21:56:33.376Z,102992.88
2018-04-17T21:59:36.752Z,102995.31
2018-04-17T22:02:40.017Z,102997.26
2018-04-17T22:05:43.185Z,102995.31
2018-04-17T22:08:46.558Z,102994.74
2018-04-17T22:11:49.973Z,102994.16
2018-04-17T22:14:53.224Z,103000.24
2018-04-17T22:17:56.492Z,103005.40
2018-04-17T22:20:59.858Z,103002.36
2018-04-17T22:24:03.105Z,103005.43
2018-04-17T22:27:06.456Z,103006.50
2018-04-17T22:30:09.868Z,103015.36
2018-04-17T22:33:13.120Z,103013.87
2018-04-17T22:36:16.481Z,103012.51
2018-04-17T22:39:19.857Z,103020.54
2018-04-17T22:42:23.169Z,103023.24
2018-04-17T22:45:26.582Z,103026.71
2018-04-17T22:48:30.007Z,103030.65
2018-04-17T22:51:34.353Z,103025.69
2018-04-17T22:54:37.638Z,103029.19
2018-04-17T22:57:40.901Z,103038.32
2018-04-17T23:00:44.250Z,103034.57
2018-04-17T23:03:47.538Z,103034.46
2018-04-17T23:06:50.837Z,103037.03
2018-04-17T23:09:54.566Z,103039.68
2018-04-17T23:12:57.835Z,103041.64
2018-04-17T23:16:01.237Z,103039.87
2018-04-17T23:19:04.548Z,103044.86
2018-04-17T23:22:07.833Z,103047.16
2018-04-17T23:25:11.234Z,103048.56
2018-04-17T23:28:14.456Z,103051.36
2018-04-17T23:31:17.744Z,103056.25
2018-04-17T23:34:21.057Z,103053.37
2018-04-17T23:37:24.515Z,103054.86
2018-04-17T23:40:27.715Z,103059.47
2018-04-17T23:43:31.148Z,103058.23
2018-04-17T23:46:34.564Z,103069.05
2018-04-17T23:49:38.736Z,103067.28
2018-04-17T23:52:42.029Z,103073.05
2018-04-17T23:55:45.331Z,103070.99
2018-04-17T23:58:48.627Z,103073.48
